Time;durP1;ratioP1;P1;durP2;ratioP2;P2;SDS_P1;SDS_P2;PMS_P1;PMS_P2;Temp;Humidity;BMP_temperature;BMP_pressure;BME280_temperature;BME280_humidity;BME280_pressure;Samples;Min_cycle;Max_cycle;Signal;HPM_P1;HPM_P2
2021/10/18 00:00:15;;;;;;;11.75;6.38;;;;;;;;;;5071239;28;20021;-88
2021/10/18 00:02:40;;;;;;;12.57;6.20;;;;;;;;;;5053015;28;20028;-88
2021/10/18 00:05:06;;;;;;;16.73;6.85;;;;;;;;;;5053682;28;20216;-88
2021/10/18 00:07:31;;;;;;;11.05;6.15;;;;;;;;;;5040725;28;20017;-87
2021/10/18 00:09:56;;;;;;;10.25;6.13;;;;;;;;;;5079685;22;20076;-69
2021/10/18 00:12:22;;;;;;;15.43;6.22;;;;;;;;;;5067858;28;20469;-69
2021/10/18 00:14:47;;;;;;;12.68;7.05;;;;;;;;;;5072091;28;20107;-69
2021/10/18 00:17:12;;;;;;;12.68;6.75;;;;;;;;;;5053339;28;20025;-68
2021/10/18 00:19:38;;;;;;;16.50;7.72;;;;;;;;;;5052431;28;20017;-69
2021/10/18 00:22:03;;;;;;;16.70;6.93;;;;;;;;;;5056671;28;20154;-69
2021/10/18 00:24:28;;;;;;;12.73;7.57;;;;;;;;;;5085847;22;20037;-64
2021/10/18 00:26:53;;;;;;;17.40;7.13;;;;;;;;;;5057321;28;20447;-65
2021/10/18 00:29:19;;;;;;;16.85;7.63;;;;;;;;;;5056772;28;20490;-66
2021/10/18 00:31:44;;;;;;;19.98;6.90;;;;;;;;;;5051557;28;20506;-64
2021/10/18 00:34:09;;;;;;;13.18;6.18;;;;;;;;;;5052233;28;20017;-64
2021/10/18 00:36:34;;;;;;;15.50;7.15;;;;;;;;;;5052737;28;20473;-64
2021/10/18 00:38:59;;;;;;;12.50;6.93;;;;;;;;;;5051197;28;20461;-66
2021/10/18 00:41:25;;;;;;;13.50;7.13;;;;;;;;;;5052573;28;20017;-64
2021/10/18 00:43:51;;;;;;;14.52;6.97;;;;;;;;;;5051573;28;20037;-66
2021/10/18 00:46:21;;;;;;;16.92;7.47;;;;;;;;;;5052463;28;20485;-67
2021/10/18 00:48:46;;;;;;;12.20;6.13;;;;;;;;;;5052291;28;20062;-65
2021/10/18 00:51:11;;;;;;;14.50;6.55;;;;;;;;;;5052434;28;20017;-66
2021/10/18 00:53:37;;;;;;;15.88;6.22;;;;;;;;;;5051776;28;20033;-66
2021/10/18 00:56:02;;;;;;;12.60;6.60;;;;;;;;;;5052193;28;20061;-64
2021/10/18 00:58:27;;;;;;;16.17;6.47;;;;;;;;;;5052320;28;20070;-65
2021/10/18 01:00:53;;;;;;;10.18;6.43;;;;;;;;;;5052149;28;20036;-63
2021/10/18 01:03:18;;;;;;;10.95;6.22;;;;;;;;;;5051872;28;20064;-64
2021/10/18 01:05:44;;;;;;;12.20;5.97;;;;;;;;;;5051144;28;20025;-65
2021/10/18 01:08:09;;;;;;;10.40;5.85;;;;;;;;;;5051867;28;20469;-64
2021/10/18 01:10:35;;;;;;;16.58;5.80;;;;;;;;;;5052260;28;20461;-65
2021/10/18 01:13:00;;;;;;;10.77;5.78;;;;;;;;;;5051625;28;20152;-64
2021/10/18 01:15:25;;;;;;;12.32;5.90;;;;;;;;;;5052078;28;20100;-64
2021/10/18 01:17:50;;;;;;;13.85;5.72;;;;;;;;;;5047317;28;20047;-65
2021/10/18 01:20:26;;;;;;;12.68;5.93;;;;;;;;;;5041122;28;20072;-64
2021/10/18 01:22:51;;;;;;;11.52;6.88;;;;;;;;;;5051639;28;20107;-65
2021/10/18 01:25:16;;;;;;;13.38;6.15;;;;;;;;;;5051745;28;20545;-66
2021/10/18 01:27:41;;;;;;;11.13;5.82;;;;;;;;;;5051900;28;20024;-66
2021/10/18 01:30:07;;;;;;;16.67;6.25;;;;;;;;;;5056469;28;20017;-66
2021/10/18 01:32:32;;;;;;;12.75;6.13;;;;;;;;;;5060975;28;20029;-65
2021/10/18 01:34:57;;;;;;;12.63;6.80;;;;;;;;;;5058218;28;20488;-66
2021/10/18 01:37:22;;;;;;;14.00;6.38;;;;;;;;;;5051209;28;20546;-65
2021/10/18 01:39:48;;;;;;;12.00;5.90;;;;;;;;;;5055911;28;20027;-67
2021/10/18 01:42:13;;;;;;;9.85;5.50;;;;;;;;;;5058327;28;20033;-66
2021/10/18 01:44:38;;;;;;;13.38;6.43;;;;;;;;;;5050311;28;20036;-66
2021/10/18 01:47:03;;;;;;;11.20;6.30;;;;;;;;;;5051449;28;20057;-65
2021/10/18 01:49:29;;;;;;;12.80;6.25;;;;;;;;;;5051326;28;20013;-67
2021/10/18 01:51:54;;;;;;;10.93;5.88;;;;;;;;;;5051355;28;20072;-66
2021/10/18 01:54:19;;;;;;;14.93;7.25;;;;;;;;;;5051019;28;20043;-66
2021/10/18 01:56:44;;;;;;;12.07;6.68;;;;;;;;;;5051414;28;20020;-66
2021/10/18 01:59:10;;;;;;;9.50;5.85;;;;;;;;;;5043128;28;20502;-66
2021/10/18 02:01:35;;;;;;;13.40;6.40;;;;;;;;;;5051104;28;20029;-65
2021/10/18 02:04:00;;;;;;;11.52;6.05;;;;;;;;;;5050553;28;20473;-65
2021/10/18 02:06:25;;;;;;;10.10;5.78;;;;;;;;;;5050812;28;20024;-64
2021/10/18 02:08:50;;;;;;;10.05;6.25;;;;;;;;;;5050974;28;20071;-64
2021/10/18 02:11:16;;;;;;;16.83;5.75;;;;;;;;;;5050713;28;20055;-64
2021/10/18 02:13:41;;;;;;;10.00;5.93;;;;;;;;;;5050568;28;20016;-65
2021/10/18 02:16:06;;;;;;;14.50;6.03;;;;;;;;;;5049698;28;20044;-65
2021/10/18 02:18:31;;;;;;;11.00;5.63;;;;;;;;;;5050839;28;20377;-64
2021/10/18 02:21:00;;;;;;;8.45;5.07;;;;;;;;;;5050692;28;20389;-65
2021/10/18 02:23:29;;;;;;;12.15;5.85;;;;;;;;;;5049912;28;20036;-64
2021/10/18 02:25:55;;;;;;;16.92;6.20;;;;;;;;;;5050701;28;20044;-65
2021/10/18 02:28:20;;;;;;;11.75;5.90;;;;;;;;;;5050194;28;20504;-64
2021/10/18 02:30:45;;;;;;;10.15;5.47;;;;;;;;;;5055755;28;20075;-65
2021/10/18 02:33:10;;;;;;;10.70;5.60;;;;;;;;;;5069231;28;20021;-64
2021/10/18 02:35:36;;;;;;;11.77;5.60;;;;;;;;;;5065433;28;20496;-64
2021/10/18 02:38:01;;;;;;;11.43;5.43;;;;;;;;;;5052428;28;20163;-64
2021/10/18 02:40:26;;;;;;;10.05;5.53;;;;;;;;;;5063892;28;20029;-65
2021/10/18 02:42:51;;;;;;;13.85;6.80;;;;;;;;;;5049933;28;20037;-65
2021/10/18 02:45:16;;;;;;;7.75;5.10;;;;;;;;;;5050061;28;20130;-65
2021/10/18 02:47:42;;;;;;;11.27;5.80;;;;;;;;;;5065698;28;20024;-65
2021/10/18 02:50:07;;;;;;;12.27;5.65;;;;;;;;;;5064459;28;20012;-65
2021/10/18 02:52:33;;;;;;;14.27;5.57;;;;;;;;;;5049889;28;20024;-65
2021/10/18 02:54:58;;;;;;;12.98;5.53;;;;;;;;;;5056796;28;20031;-64
2021/10/18 02:57:23;;;;;;;10.45;4.97;;;;;;;;;;5049637;28;20075;-65
2021/10/18 02:59:48;;;;;;;13.87;6.83;;;;;;;;;;5060399;28;20024;-66
2021/10/18 03:02:15;;;;;;;11.40;5.38;;;;;;;;;;5067045;28;20754;-64
2021/10/18 03:04:40;;;;;;;10.70;5.53;;;;;;;;;;5049940;28;20058;-65
2021/10/18 03:07:05;;;;;;;15.75;6.28;;;;;;;;;;5049699;28;20505;-66
2021/10/18 03:09:30;;;;;;;13.43;6.10;;;;;;;;;;5048379;28;20033;-66
2021/10/18 03:11:55;;;;;;;12.15;5.90;;;;;;;;;;5049143;28;20044;-67
2021/10/18 03:14:21;;;;;;;12.37;5.80;;;;;;;;;;5049639;28;20068;-66
2021/10/18 03:16:46;;;;;;;10.65;5.78;;;;;;;;;;5049870;28;20275;-67
2021/10/18 03:19:11;;;;;;;13.32;6.45;;;;;;;;;;5049543;28;20072;-66
2021/10/18 03:21:36;;;;;;;11.60;5.75;;;;;;;;;;5049242;28;20108;-67
2021/10/18 03:24:02;;;;;;;10.20;6.38;;;;;;;;;;5049006;28;20020;-66
2021/10/18 03:26:27;;;;;;;18.23;7.05;;;;;;;;;;5049278;28;20021;-66
2021/10/18 03:28:52;;;;;;;12.43;6.20;;;;;;;;;;5049855;28;20020;-66
2021/10/18 03:31:17;;;;;;;11.40;6.60;;;;;;;;;;5049293;28;20469;-65
2021/10/18 03:33:42;;;;;;;12.52;6.75;;;;;;;;;;5048751;28;20266;-66
2021/10/18 03:36:08;;;;;;;14.75;7.13;;;;;;;;;;5049254;28;20122;-66
2021/10/18 03:38:34;;;;;;;11.85;6.18;;;;;;;;;;5049610;28;20021;-66
2021/10/18 03:40:59;;;;;;;11.93;6.47;;;;;;;;;;5049059;28;20560;-67
2021/10/18 03:43:24;;;;;;;14.45;7.13;;;;;;;;;;5049142;28;20021;-66
2021/10/18 03:45:50;;;;;;;11.60;6.75;;;;;;;;;;5049094;28;20025;-66
2021/10/18 03:48:15;;;;;;;18.13;7.38;;;;;;;;;;5049754;28;20040;-66
2021/10/18 03:50:41;;;;;;;16.15;7.70;;;;;;;;;;5049597;28;20081;-66
2021/10/18 03:53:06;;;;;;;12.68;7.13;;;;;;;;;;5048886;28;20025;-66
2021/10/18 03:55:31;;;;;;;15.90;7.45;;;;;;;;;;5049741;28;20070;-66
2021/10/18 03:57:56;;;;;;;13.05;6.50;;;;;;;;;;5049493;28;20021;-66
2021/10/18 04:00:22;;;;;;;12.38;6.97;;;;;;;;;;5049683;28;20029;-66
2021/10/18 04:02:47;;;;;;;17.63;7.55;;;;;;;;;;5049599;28;20033;-66
2021/10/18 04:05:12;;;;;;;13.93;6.78;;;;;;;;;;5050052;28;20031;-67
2021/10/18 04:07:38;;;;;;;11.30;6.35;;;;;;;;;;5053368;28;20017;-66
2021/10/18 04:10:04;;;;;;;11.95;6.55;;;;;;;;;;5053286;28;20100;-66
2021/10/18 04:12:29;;;;;;;15.07;6.45;;;;;;;;;;5052960;28;20101;-66
2021/10/18 04:14:54;;;;;;;11.43;6.13;;;;;;;;;;5052935;28;20126;-66
2021/10/18 04:17:19;;;;;;;12.52;6.60;;;;;;;;;;5053297;28;20055;-66
2021/10/18 04:19:45;;;;;;;16.70;7.60;;;;;;;;;;5052968;28;20023;-65
2021/10/18 04:22:10;;;;;;;16.48;7.80;;;;;;;;;;5051679;28;20025;-66
2021/10/18 04:24:35;;;;;;;13.68;7.25;;;;;;;;;;5052096;28;20396;-66
2021/10/18 04:27:00;;;;;;;14.30;7.05;;;;;;;;;;5052729;28;20473;-67
2021/10/18 04:29:25;;;;;;;16.27;7.53;;;;;;;;;;5052797;28;20021;-65
2021/10/18 04:31:57;;;;;;;14.27;7.93;;;;;;;;;;5052635;28;20041;-65
2021/10/18 04:34:22;;;;;;;16.38;6.70;;;;;;;;;;5052910;28;20067;-65
2021/10/18 04:36:48;;;;;;;19.38;8.57;;;;;;;;;;5052638;28;20025;-65
2021/10/18 04:39:13;;;;;;;15.60;7.43;;;;;;;;;;5052783;28;20021;-65
2021/10/18 04:41:38;;;;;;;20.83;7.43;;;;;;;;;;5053100;28;20056;-64
2021/10/18 04:44:03;;;;;;;16.00;7.13;;;;;;;;;;5052065;28;20025;-64
2021/10/18 04:46:28;;;;;;;15.85;8.32;;;;;;;;;;5060671;28;20460;-65
2021/10/18 04:48:54;;;;;;;13.07;7.07;;;;;;;;;;5050055;28;20005;-64
2021/10/18 04:51:19;;;;;;;14.23;6.75;;;;;;;;;;5052522;28;20024;-65
2021/10/18 04:53:44;;;;;;;13.73;8.30;;;;;;;;;;5051769;28;20017;-65
2021/10/18 04:56:09;;;;;;;17.60;7.85;;;;;;;;;;5052444;28;20032;-64
2021/10/18 04:58:34;;;;;;;16.80;8.57;;;;;;;;;;5052501;28;20056;-65
2021/10/18 05:00:59;;;;;;;13.98;6.97;;;;;;;;;;5052071;28;20082;-65
2021/10/18 05:03:25;;;;;;;18.15;7.45;;;;;;;;;;5051976;28;20108;-64
2021/10/18 05:05:50;;;;;;;19.35;7.60;;;;;;;;;;5052069;28;20078;-65
2021/10/18 05:08:15;;;;;;;21.20;8.23;;;;;;;;;;5052110;28;20025;-65
2021/10/18 05:10:42;;;;;;;14.63;7.68;;;;;;;;;;5052039;28;20032;-65
2021/10/18 05:13:07;;;;;;;14.63;8.05;;;;;;;;;;5051512;28;20035;-65
2021/10/18 05:15:33;;;;;;;22.77;8.75;;;;;;;;;;5052129;28;20017;-66
2021/10/18 05:18:00;;;;;;;21.80;8.98;;;;;;;;;;5061725;28;20064;-65
2021/10/18 05:20:25;;;;;;;19.35;8.00;;;;;;;;;;5052786;28;20021;-65
2021/10/18 05:22:50;;;;;;;16.25;8.20;;;;;;;;;;5051489;28;20009;-64
2021/10/18 05:25:16;;;;;;;17.97;8.07;;;;;;;;;;5051892;28;20528;-64
2021/10/18 05:27:41;;;;;;;22.20;8.23;;;;;;;;;;5051236;28;20268;-67
2021/10/18 05:30:07;;;;;;;17.05;8.40;;;;;;;;;;5051631;28;20420;-66
2021/10/18 05:32:33;;;;;;;18.13;8.18;;;;;;;;;;5063720;28;20027;-66
2021/10/18 05:34:58;;;;;;;19.55;8.73;;;;;;;;;;5052557;28;20111;-66
2021/10/18 05:37:23;;;;;;;22.33;9.13;;;;;;;;;;5051652;28;20079;-67
2021/10/18 05:39:48;;;;;;;17.00;7.93;;;;;;;;;;5051577;28;20071;-66
2021/10/18 05:42:14;;;;;;;26.17;9.48;;;;;;;;;;5051427;28;20430;-66
2021/10/18 05:44:39;;;;;;;17.73;8.48;;;;;;;;;;5051111;28;20055;-67
2021/10/18 05:47:04;;;;;;;14.07;8.90;;;;;;;;;;5050198;28;20082;-68
2021/10/18 05:49:29;;;;;;;17.75;9.10;;;;;;;;;;5037841;28;20035;-66
2021/10/18 05:51:55;;;;;;;22.83;8.82;;;;;;;;;;5041655;28;20119;-66
2021/10/18 05:54:20;;;;;;;19.08;8.63;;;;;;;;;;5042215;28;20029;-64
2021/10/18 05:56:45;;;;;;;20.73;9.40;;;;;;;;;;5048275;28;20021;-64
2021/10/18 05:59:10;;;;;;;22.80;9.50;;;;;;;;;;5047916;28;20492;-63
2021/10/18 06:01:35;;;;;;;21.00;9.32;;;;;;;;;;5048117;28;20060;-65
2021/10/18 06:04:03;;;;;;;19.48;9.07;;;;;;;;;;5043412;28;20031;-64
2021/10/18 06:06:31;;;;;;;17.10;8.80;;;;;;;;;;5047073;28;20372;-65
2021/10/18 06:08:56;;;;;;;14.25;8.57;;;;;;;;;;5043575;28;20020;-65
2021/10/18 06:11:22;;;;;;;22.75;8.82;;;;;;;;;;5028491;28;20117;-66
2021/10/18 06:13:47;;;;;;;22.67;9.43;;;;;;;;;;5028052;28;20033;-66
2021/10/18 06:16:12;;;;;;;22.77;10.02;;;;;;;;;;5028319;28;20407;-66
2021/10/18 06:18:37;;;;;;;25.70;9.65;;;;;;;;;;5028422;28;20489;-66
2021/10/18 06:21:02;;;;;;;21.02;9.35;;;;;;;;;;5042751;28;20033;-66
2021/10/18 06:23:28;;;;;;;17.92;10.02;;;;;;;;;;5042564;28;20055;-65
2021/10/18 06:25:53;;;;;;;16.15;8.95;;;;;;;;;;5050136;28;20020;-65
2021/10/18 06:28:18;;;;;;;21.73;10.20;;;;;;;;;;5062726;28;20028;-65
2021/10/18 06:30:44;;;;;;;31.33;11.10;;;;;;;;;;5050376;28;20017;-63
2021/10/18 06:33:09;;;;;;;22.15;10.10;;;;;;;;;;5068231;28;20504;-65
2021/10/18 06:35:35;;;;;;;25.08;10.85;;;;;;;;;;5058669;28;20024;-65
2021/10/18 06:38:01;;;;;;;27.42;10.50;;;;;;;;;;5054337;28;20024;-65
2021/10/18 06:40:26;;;;;;;26.30;11.23;;;;;;;;;;5053827;28;20043;-64
2021/10/18 06:42:51;;;;;;;21.98;10.60;;;;;;;;;;5054690;28;20108;-66
2021/10/18 06:45:16;;;;;;;27.77;9.88;;;;;;;;;;5051194;28;20419;-66
2021/10/18 06:47:42;;;;;;;26.25;11.35;;;;;;;;;;5050400;28;20078;-66
2021/10/18 06:50:07;;;;;;;24.65;10.73;;;;;;;;;;5050924;28;20512;-67
2021/10/18 06:52:35;;;;;;;21.23;11.65;;;;;;;;;;5052006;28;20025;-64
2021/10/18 06:55:04;;;;;;;19.10;9.57;;;;;;;;;;5050105;28;20045;-65
2021/10/18 06:57:29;;;;;;;17.55;9.30;;;;;;;;;;5064754;28;20029;-64
2021/10/18 06:59:54;;;;;;;19.63;8.83;;;;;;;;;;5059265;28;20023;-65
2021/10/18 07:02:19;;;;;;;23.67;10.00;;;;;;;;;;5053345;28;20779;-67
2021/10/18 07:04:44;;;;;;;15.90;9.00;;;;;;;;;;5066210;28;20035;-65
2021/10/18 07:07:10;;;;;;;16.33;8.97;;;;;;;;;;5063794;28;20484;-66
2021/10/18 07:09:36;;;;;;;20.83;9.32;;;;;;;;;;5070473;28;20263;-66
2021/10/18 07:12:01;;;;;;;14.73;8.27;;;;;;;;;;5066571;28;20365;-65
2021/10/18 07:14:26;;;;;;;17.75;8.35;;;;;;;;;;5052690;28;20033;-66
2021/10/18 07:16:51;;;;;;;16.90;6.70;;;;;;;;;;5063187;28;20074;-64
2021/10/18 07:19:17;;;;;;;13.17;7.33;;;;;;;;;;5068628;28;20269;-66
2021/10/18 07:21:42;;;;;;;13.25;7.47;;;;;;;;;;5053196;28;20267;-65
2021/10/18 07:24:08;;;;;;;11.35;6.07;;;;;;;;;;5055955;28;20062;-66
2021/10/18 07:26:33;;;;;;;14.90;6.72;;;;;;;;;;5065977;28;20017;-64
2021/10/18 07:28:59;;;;;;;12.25;7.00;;;;;;;;;;5068490;28;20062;-65
2021/10/18 07:31:24;;;;;;;16.00;8.05;;;;;;;;;;5066005;28;20025;-64
2021/10/18 07:33:49;;;;;;;16.20;7.93;;;;;;;;;;5050759;28;20044;-66
2021/10/18 07:36:23;;;;;;;16.25;7.70;;;;;;;;;;5055578;28;20476;-66
2021/10/18 07:38:50;;;;;;;16.38;8.00;;;;;;;;;;5049916;28;20500;-66
2021/10/18 07:41:15;;;;;;;15.38;8.40;;;;;;;;;;5062697;28;20500;-65
2021/10/18 07:43:41;;;;;;;16.57;7.77;;;;;;;;;;5054908;28;20025;-65
2021/10/18 07:46:06;;;;;;;15.93;8.35;;;;;;;;;;5053763;28;20248;-66
2021/10/18 07:48:31;;;;;;;15.68;7.72;;;;;;;;;;5057841;28;20017;-67
2021/10/18 07:50:56;;;;;;;18.23;10.10;;;;;;;;;;5067578;28;20025;-65
2021/10/18 07:53:22;;;;;;;20.30;9.67;;;;;;;;;;5054476;28;20452;-67
2021/10/18 07:55:47;;;;;;;19.02;8.68;;;;;;;;;;5045449;28;20267;-66
2021/10/18 07:58:12;;;;;;;17.02;6.75;;;;;;;;;;5047278;28;20029;-64
2021/10/18 08:00:38;;;;;;;19.30;9.33;;;;;;;;;;5063011;28;20311;-67
2021/10/18 08:03:03;;;;;;;18.25;10.18;;;;;;;;;;5058184;28;20329;-66
2021/10/18 08:05:28;;;;;;;15.82;8.80;;;;;;;;;;5050284;28;20036;-66
2021/10/18 08:07:55;;;;;;;19.95;8.70;;;;;;;;;;5054321;28;20028;-66
2021/10/18 08:10:23;;;;;;;18.45;9.52;;;;;;;;;;5060020;28;20028;-66
2021/10/18 08:12:55;;;;;;;23.92;11.95;;;;;;;;;;5045409;28;20017;-67
2021/10/18 08:15:22;;;;;;;18.42;8.27;;;;;;;;;;5052994;28;20021;-67
2021/10/18 08:17:47;;;;;;;25.77;10.02;;;;;;;;;;5063706;28;20020;-67
2021/10/18 08:20:12;;;;;;;22.00;11.38;;;;;;;;;;5047312;28;20104;-67
2021/10/18 08:22:37;;;;;;;7.18;4.07;;;;;;;;;;5049229;28;20424;-67
2021/10/18 08:25:03;;;;;;;19.27;9.97;;;;;;;;;;5052775;28;20420;-67
2021/10/18 08:27:28;;;;;;;14.93;7.60;;;;;;;;;;5044514;28;20391;-67
2021/10/18 08:29:53;;;;;;;26.80;12.13;;;;;;;;;;5055819;28;20373;-65
2021/10/18 08:32:18;;;;;;;17.58;7.38;;;;;;;;;;5057151;28;20019;-64
2021/10/18 08:34:44;;;;;;;10.85;6.00;;;;;;;;;;5055332;28;20100;-65
2021/10/18 08:37:09;;;;;;;16.17;6.97;;;;;;;;;;5052438;28;20021;-65
2021/10/18 08:42:18;;;;;;;;;;;;;;;;;;5052716;28;20387;-67
2021/10/18 08:44:43;;;;;;;12.27;4.97;;;;;;;;;;5053796;28;20385;-67
2021/10/18 08:47:09;;;;;;;18.00;7.85;;;;;;;;;;5051484;28;20059;-68
2021/10/18 08:49:35;;;;;;;14.93;8.02;;;;;;;;;;5052542;28;20024;-66
2021/10/18 08:52:00;;;;;;;19.30;8.23;;;;;;;;;;5047906;28;20021;-65
2021/10/18 08:54:25;;;;;;;17.63;7.27;;;;;;;;;;5051690;28;20028;-65
2021/10/18 08:56:50;;;;;;;28.77;9.18;;;;;;;;;;5051367;28;20279;-66
2021/10/18 08:59:16;;;;;;;7.70;3.97;;;;;;;;;;5051318;28;20028;-66
2021/10/18 09:01:46;;;;;;;16.55;7.50;;;;;;;;;;5055619;28;20078;-65
2021/10/18 09:04:31;;;;;;;8.45;4.05;;;;;;;;;;5051403;28;20024;-67
2021/10/18 09:06:56;;;;;;;11.05;5.53;;;;;;;;;;5052449;28;20111;-65
2021/10/18 09:09:26;;;;;;;11.02;5.80;;;;;;;;;;5053006;28;20443;-65
2021/10/18 09:11:52;;;;;;;19.23;7.68;;;;;;;;;;5056899;28;20048;-65
2021/10/18 09:14:17;;;;;;;20.50;8.50;;;;;;;;;;5056807;28;20029;-67
2021/10/18 09:16:44;;;;;;;8.07;3.67;;;;;;;;;;5052449;28;20078;-65
2021/10/18 09:19:10;;;;;;;18.88;9.20;;;;;;;;;;5053206;28;20424;-64
2021/10/18 09:21:43;;;;;;;21.65;9.13;;;;;;;;;;5064662;28;20259;-65
2021/10/18 09:24:09;;;;;;;19.35;9.32;;;;;;;;;;5056462;28;20032;-66
2021/10/18 09:26:35;;;;;;;13.27;5.88;;;;;;;;;;5061317;28;20022;-65
2021/10/18 09:29:08;;;;;;;18.33;5.45;;;;;;;;;;5070182;28;20024;-64
2021/10/18 09:31:33;;;;;;;14.85;5.72;;;;;;;;;;5061995;28;20017;-64
2021/10/18 09:34:10;;;;;;;13.20;5.93;;;;;;;;;;5051673;28;20032;-64
2021/10/18 09:36:35;;;;;;;17.80;8.48;;;;;;;;;;5052589;28;20045;-65
2021/10/18 09:39:14;;;;;;;17.13;8.73;;;;;;;;;;5060809;28;20031;-64
2021/10/18 09:41:44;;;;;;;22.02;6.25;;;;;;;;;;5058120;28;20107;-65
2021/10/18 09:44:21;;;;;;;19.42;8.65;;;;;;;;;;5053412;28;20029;-65
2021/10/18 09:47:03;;;;;;;9.43;5.13;;;;;;;;;;5045757;28;20067;-64
2021/10/18 10:54:07;;;;;;;18.40;10.25;;;;;;;;;;5063754;28;20059;-64
2021/10/18 10:56:42;;;;;;;16.20;5.72;;;;;;;;;;5057675;28;20028;-65
2021/10/18 10:59:17;;;;;;;14.57;5.40;;;;;;;;;;5050960;28;20070;-65
2021/10/18 11:01:43;;;;;;;18.30;9.57;;;;;;;;;;5068685;28;20021;-65
2021/10/18 11:04:27;;;;;;;19.27;9.20;;;;;;;;;;5050016;28;20024;-65
2021/10/18 11:06:52;;;;;;;16.27;9.18;;;;;;;;;;5042769;28;20017;-65
2021/10/18 11:09:37;;;;;;;15.23;5.43;;;;;;;;;;5049845;28;20488;-65
2021/10/18 11:12:03;;;;;;;19.02;7.30;;;;;;;;;;5045658;28;20268;-66
2021/10/18 11:14:28;;;;;;;8.02;3.42;;;;;;;;;;5049496;28;20298;-67
2021/10/18 11:16:53;;;;;;;12.10;6.15;;;;;;;;;;5052123;28;20064;-66
2021/10/18 11:19:21;;;;;;;14.68;5.55;;;;;;;;;;5051757;28;20056;-64
2021/10/18 11:21:53;;;;;;;16.40;8.32;;;;;;;;;;5045908;28;20067;-66
2021/10/18 11:24:19;;;;;;;18.08;7.53;;;;;;;;;;5042656;28;20045;-65
2021/10/18 11:26:44;;;;;;;19.17;9.63;;;;;;;;;;5053671;28;20047;-66
2021/10/18 11:29:11;;;;;;;10.70;4.10;;;;;;;;;;5068548;28;20621;-65
2021/10/18 11:31:37;;;;;;;21.65;7.90;;;;;;;;;;5060768;28;20562;-67
2021/10/18 11:34:05;;;;;;;17.10;9.18;;;;;;;;;;5073138;28;20016;-65
2021/10/18 11:36:30;;;;;;;19.10;5.80;;;;;;;;;;5056525;28;20029;-65
2021/10/18 11:39:05;;;;;;;18.83;9.23;;;;;;;;;;5054686;28;20081;-66
2021/10/18 11:41:30;;;;;;;14.80;6.40;;;;;;;;;;5069807;28;20059;-66
2021/10/18 11:43:55;;;;;;;15.83;7.13;;;;;;;;;;5064839;28;20040;-66
2021/10/18 11:46:21;;;;;;;17.80;7.67;;;;;;;;;;5054632;28;20667;-67
2021/10/18 11:48:46;;;;;;;10.73;5.70;;;;;;;;;;5062536;28;20271;-67
2021/10/18 11:51:11;;;;;;;18.17;8.03;;;;;;;;;;5062547;28;20309;-66
2021/10/18 11:53:41;;;;;;;8.73;5.60;;;;;;;;;;5061351;28;20739;-66
2021/10/18 11:56:06;;;;;;;21.37;8.63;;;;;;;;;;5065715;28;20423;-67
2021/10/18 11:58:32;;;;;;;17.27;8.77;;;;;;;;;;5061226;28;20123;-65
2021/10/18 12:01:05;;;;;;;10.18;4.55;;;;;;;;;;5062039;28;20086;-67
2021/10/18 12:03:31;;;;;;;12.63;6.00;;;;;;;;;;5050129;28;20562;-67
2021/10/18 12:05:57;;;;;;;19.80;8.65;;;;;;;;;;5052018;28;20025;-67
2021/10/18 12:08:27;;;;;;;15.38;8.15;;;;;;;;;;5060793;28;20016;-66
2021/10/18 12:10:52;;;;;;;20.63;9.07;;;;;;;;;;5071674;28;20706;-66
2021/10/18 12:13:24;;;;;;;20.02;9.93;;;;;;;;;;5063232;28;20020;-65
2021/10/18 12:15:55;;;;;;;17.13;8.70;;;;;;;;;;5060462;28;20023;-66
2021/10/18 12:18:22;;;;;;;12.65;6.18;;;;;;;;;;5046210;28;20029;-66
2021/10/18 12:20:49;;;;;;;12.15;5.35;;;;;;;;;;5049583;28;20021;-66
2021/10/18 12:23:22;;;;;;;16.02;7.60;;;;;;;;;;5054536;28;20025;-64
2021/10/18 12:26:17;;;;;;;19.30;7.95;;;;;;;;;;5069179;28;21765;-65
2021/10/18 12:28:42;;;;;;;18.90;8.15;;;;;;;;;;5034971;28;20051;-66
2021/10/18 12:31:26;;;;;;;15.30;8.53;;;;;;;;;;5065278;28;20024;-64
2021/10/18 12:34:10;;;;;;;15.48;7.80;;;;;;;;;;5069988;28;20769;-66
2021/10/18 12:36:50;;;;;;;11.90;6.47;;;;;;;;;;5069993;28;20377;-66
2021/10/18 12:39:31;;;;;;;18.75;8.27;;;;;;;;;;5042364;28;20477;-66
2021/10/18 12:41:56;;;;;;;9.75;4.90;;;;;;;;;;5067356;28;20027;-66
2021/10/18 12:44:27;;;;;;;17.60;6.53;;;;;;;;;;5071514;28;20116;-66
2021/10/18 12:46:53;;;;;;;20.20;10.00;;;;;;;;;;5057001;28;20295;-66
2021/10/18 12:49:26;;;;;;;16.53;9.37;;;;;;;;;;5063504;28;20116;-66
2021/10/18 12:51:52;;;;;;;16.70;7.25;;;;;;;;;;5067499;28;20654;-66
2021/10/18 12:54:19;;;;;;;17.73;8.27;;;;;;;;;;5065891;28;20025;-65
2021/10/18 12:56:54;;;;;;;24.98;10.07;;;;;;;;;;5048499;28;20632;-66
2021/10/18 12:59:20;;;;;;;24.45;8.80;;;;;;;;;;5055652;28;20016;-66
2021/10/18 13:01:45;;;;;;;18.15;7.43;;;;;;;;;;5052876;28;20033;-65
2021/10/18 13:04:17;;;;;;;12.50;5.88;;;;;;;;;;5051160;28;20017;-64
2021/10/18 13:06:42;;;;;;;18.25;7.25;;;;;;;;;;5051016;28;20070;-65
2021/10/18 13:09:07;;;;;;;9.73;5.47;;;;;;;;;;5052003;28;20475;-64
2021/10/18 13:11:32;;;;;;;16.83;8.23;;;;;;;;;;5051477;28;20275;-65
2021/10/18 13:13:57;;;;;;;17.23;7.17;;;;;;;;;;5051536;28;20259;-66
2021/10/18 13:16:24;;;;;;;18.83;9.27;;;;;;;;;;5051393;28;20901;-66
2021/10/18 13:18:49;;;;;;;11.20;6.57;;;;;;;;;;5051583;28;20273;-64
2021/10/18 13:21:14;;;;;;;14.80;5.68;;;;;;;;;;5051752;28;20021;-65
2021/10/18 13:23:40;;;;;;;18.77;9.07;;;;;;;;;;5051111;28;20035;-64
2021/10/18 13:26:05;;;;;;;16.45;7.60;;;;;;;;;;5051475;28;20279;-66
2021/10/18 13:28:30;;;;;;;19.55;10.60;;;;;;;;;;5051564;28;20381;-66
2021/10/18 13:30:56;;;;;;;21.42;10.20;;;;;;;;;;5051458;28;20024;-64
2021/10/18 13:33:22;;;;;;;24.58;9.43;;;;;;;;;;5051405;28;20016;-67
2021/10/18 13:35:47;;;;;;;17.23;8.82;;;;;;;;;;5059245;28;20048;-67
2021/10/18 13:38:12;;;;;;;20.48;7.20;;;;;;;;;;5066466;28;20393;-67
2021/10/18 13:40:39;;;;;;;20.75;10.75;;;;;;;;;;5069256;28;20020;-67
2021/10/18 13:43:06;;;;;;;22.15;9.95;;;;;;;;;;5061722;28;20040;-67
2021/10/18 13:45:31;;;;;;;18.67;8.95;;;;;;;;;;5055737;28;20489;-67
2021/10/18 13:47:57;;;;;;;19.33;7.97;;;;;;;;;;5057822;28;20032;-66
2021/10/18 13:50:22;;;;;;;21.93;11.67;;;;;;;;;;5052643;28;20447;-67
2021/10/18 13:52:52;;;;;;;12.43;4.70;;;;;;;;;;5052513;28;20271;-65
2021/10/18 13:55:17;;;;;;;15.75;6.55;;;;;;;;;;5070746;28;20020;-66
2021/10/18 13:57:42;;;;;;;16.00;8.18;;;;;;;;;;5067294;28;20236;-67
2021/10/18 14:00:08;;;;;;;22.33;10.07;;;;;;;;;;5051556;28;20099;-65
2021/10/18 14:02:35;;;;;;;20.38;9.18;;;;;;;;;;5051802;28;20298;-65
2021/10/18 14:05:01;;;;;;;18.17;9.20;;;;;;;;;;5050897;28;20470;-67
2021/10/18 14:07:26;;;;;;;21.02;9.35;;;;;;;;;;5058146;28;20035;-66
2021/10/18 14:09:51;;;;;;;22.50;10.23;;;;;;;;;;5070549;28;20043;-64
2021/10/18 14:12:16;;;;;;;12.13;5.88;;;;;;;;;;5064592;28;20262;-65
2021/10/18 14:14:42;;;;;;;19.05;9.23;;;;;;;;;;5051631;28;20024;-67
2021/10/18 14:17:07;;;;;;;16.42;8.05;;;;;;;;;;5050884;28;20428;-66
2021/10/18 14:19:32;;;;;;;14.02;7.35;;;;;;;;;;5067277;28;20024;-66
2021/10/18 14:21:57;;;;;;;18.52;9.25;;;;;;;;;;5067325;28;20036;-66
2021/10/18 14:24:23;;;;;;;15.00;5.43;;;;;;;;;;5066614;28;20029;-67
2021/10/18 14:26:48;;;;;;;8.47;4.43;;;;;;;;;;5050174;28;20219;-67
2021/10/18 14:29:13;;;;;;;15.40;7.25;;;;;;;;;;5050606;28;20730;-67
2021/10/18 14:31:39;;;;;;;20.10;9.60;;;;;;;;;;5050208;28;20495;-65
2021/10/18 14:34:04;;;;;;;14.55;5.93;;;;;;;;;;5064330;28;20460;-66
2021/10/18 14:36:30;;;;;;;15.80;4.97;;;;;;;;;;5056703;28;20064;-66
2021/10/18 14:38:56;;;;;;;21.63;11.50;;;;;;;;;;5069316;28;20023;-66
2021/10/18 14:41:23;;;;;;;14.95;7.28;;;;;;;;;;5054535;28;20067;-65
2021/10/18 14:43:49;;;;;;;18.90;8.10;;;;;;;;;;5048542;28;20477;-66
2021/10/18 14:46:14;;;;;;;21.08;9.68;;;;;;;;;;5065164;28;20108;-66
2021/10/18 14:48:39;;;;;;;22.00;10.40;;;;;;;;;;5059974;28;20417;-66
2021/10/18 14:51:04;;;;;;;18.27;6.80;;;;;;;;;;5067923;28;20083;-67
2021/10/18 14:53:30;;;;;;;20.55;10.48;;;;;;;;;;5069379;28;20267;-65
2021/10/18 14:55:55;;;;;;;18.35;7.07;;;;;;;;;;5067002;28;20151;-67
2021/10/18 14:58:20;;;;;;;15.73;8.40;;;;;;;;;;5063006;28;20029;-66
2021/10/18 15:00:45;;;;;;;26.77;9.32;;;;;;;;;;5049934;28;20036;-64
2021/10/18 15:03:11;;;;;;;18.90;8.90;;;;;;;;;;5050663;28;20025;-65
2021/10/18 15:05:36;;;;;;;25.10;11.33;;;;;;;;;;5056949;28;20478;-66
2021/10/18 15:08:01;;;;;;;17.65;8.10;;;;;;;;;;5050129;28;20269;-65
2021/10/18 15:10:27;;;;;;;17.73;8.90;;;;;;;;;;5050747;28;20016;-65
2021/10/18 15:12:52;;;;;;;21.92;10.18;;;;;;;;;;5049561;28;20028;-65
2021/10/18 15:15:19;;;;;;;15.30;7.35;;;;;;;;;;5055070;28;20106;-67
2021/10/18 15:17:44;;;;;;;20.75;11.38;;;;;;;;;;5069363;28;20070;-66
2021/10/18 15:20:10;;;;;;;8.93;4.65;;;;;;;;;;5068504;28;20048;-65
2021/10/18 15:22:35;;;;;;;15.10;7.95;;;;;;;;;;5053342;28;20067;-66
2021/10/18 15:25:00;;;;;;;14.47;7.60;;;;;;;;;;5044957;28;20385;-66
2021/10/18 15:27:26;;;;;;;15.40;7.65;;;;;;;;;;5065902;28;20270;-66
2021/10/18 15:29:54;;;;;;;20.88;10.65;;;;;;;;;;5065181;28;20027;-64